createdAt,value
2017-08-23T00:00:19.283Z,990.25
2017-08-23T00:01:19.292Z,990.24
2017-08-23T00:02:19.305Z,990.26
2017-08-23T00:03:19.319Z,990.28
2017-08-23T00:04:19.330Z,990.25
2017-08-23T00:05:19.344Z,990.25
2017-08-23T00:06:19.355Z,990.23
2017-08-23T00:07:19.369Z,990.25
2017-08-23T00:08:19.388Z,990.26
2017-08-23T00:09:19.406Z,990.20
2017-08-23T00:10:19.411Z,990.20
2017-08-23T00:11:19.425Z,990.17
2017-08-23T00:12:19.434Z,990.19
2017-08-23T00:13:19.445Z,990.20
2017-08-23T00:14:19.463Z,990.17
2017-08-23T00:15:19.469Z,990.16
2017-08-23T00:16:19.487Z,990.14
2017-08-23T00:17:19.497Z,990.15
2017-08-23T00:18:19.505Z,990.17
2017-08-23T00:19:19.523Z,990.16
2017-08-23T00:20:19.528Z,990.10
2017-08-23T00:21:19.549Z,990.14
2017-08-23T00:22:19.557Z,990.11
2017-08-23T00:23:19.571Z,990.06
2017-08-23T00:24:19.585Z,990.04
2017-08-23T00:25:19.596Z,990.05
2017-08-23T00:26:19.610Z,990.01
2017-08-23T00:27:19.625Z,990.03
2017-08-23T00:28:19.634Z,990.01
2017-08-23T00:29:19.654Z,990.01
2017-08-23T00:30:19.657Z,989.97
2017-08-23T00:31:19.672Z,990.00
2017-08-23T00:32:19.681Z,989.95
2017-08-23T00:33:19.699Z,989.98
2017-08-23T00:34:19.707Z,989.97
2017-08-23T00:35:19.728Z,989.98
2017-08-23T00:36:19.735Z,989.97
2017-08-23T00:37:19.747Z,989.99
2017-08-23T00:38:19.760Z,989.95
2017-08-23T00:39:19.772Z,990.02
2017-08-23T00:40:19.786Z,990.00
2017-08-23T00:41:19.808Z,989.98
2017-08-23T00:42:19.811Z,989.98
2017-08-23T00:43:19.824Z,989.99
2017-08-23T00:44:19.840Z,989.99
2017-08-23T00:45:19.848Z,989.97
2017-08-23T00:46:19.858Z,989.98
2017-08-23T00:47:19.878Z,990.00
2017-08-23T00:48:19.884Z,989.99
2017-08-23T00:49:19.896Z,990.02
2017-08-23T00:50:19.908Z,990.00
2017-08-23T00:51:19.924Z,990.02
2017-08-23T00:52:19.938Z,990.01
2017-08-23T00:53:19.954Z,990.04
2017-08-23T00:54:19.984Z,990.07
2017-08-23T00:55:19.973Z,990.07
2017-08-23T00:56:19.985Z,990.07
2017-08-23T00:57:19.997Z,990.07
2017-08-23T00:58:20.011Z,990.03
2017-08-23T00:59:20.030Z,990.01
2017-08-23T01:00:20.060Z,990.03
2017-08-23T01:01:20.049Z,990.00
2017-08-23T01:02:20.057Z,990.00
2017-08-23T01:03:20.073Z,990.00
2017-08-23T01:04:20.083Z,990.02
2017-08-23T01:05:20.098Z,990.05
2017-08-23T01:06:20.108Z,990.01
2017-08-23T01:07:20.122Z,990.03
2017-08-23T01:08:20.134Z,990.05
2017-08-23T01:09:20.143Z,990.04
2017-08-23T01:10:20.158Z,990.04
2017-08-23T01:11:20.170Z,990.01
2017-08-23T01:12:20.184Z,990.06
2017-08-23T01:13:20.198Z,990.02
2017-08-23T01:14:20.208Z,990.09
2017-08-23T01:15:20.223Z,990.07
2017-08-23T01:16:20.233Z,990.06
2017-08-23T01:17:20.242Z,990.06
2017-08-23T01:18:20.258Z,990.04
2017-08-23T01:19:20.272Z,990.02
2017-08-23T01:20:20.282Z,990.04
2017-08-23T01:21:20.296Z,990.03
2017-08-23T01:22:20.308Z,990.01
2017-08-23T01:23:20.321Z,990.01
2017-08-23T01:24:20.333Z,990.01
2017-08-23T01:25:20.346Z,989.99
2017-08-23T01:26:20.358Z,989.99
2017-08-23T01:27:20.370Z,989.99
2017-08-23T01:28:20.389Z,990.02
2017-08-23T01:29:20.396Z,990.02
2017-08-23T01:30:20.409Z,989.96
2017-08-23T01:31:20.416Z,989.94
2017-08-23T01:32:20.434Z,989.93
2017-08-23T01:33:20.446Z,989.90
2017-08-23T01:34:20.453Z,989.92
2017-08-23T01:35:20.470Z,989.88
2017-08-23T01:36:20.480Z,989.90
2017-08-23T01:37:20.492Z,989.82
2017-08-23T01:38:20.505Z,989.81
2017-08-23T01:39:20.522Z,989.85
2017-08-23T01:40:20.537Z,989.82
2017-08-23T01:41:20.543Z,989.83
2017-08-23T01:42:20.562Z,989.82
2017-08-23T01:43:20.570Z,989.83
2017-08-23T01:44:20.581Z,989.84
2017-08-23T01:45:27.138Z,989.85
2017-08-23T01:46:20.610Z,989.81
2017-08-23T01:47:20.621Z,989.83
2017-08-23T01:48:20.630Z,989.84
2017-08-23T01:49:20.647Z,989.89
2017-08-23T01:50:20.664Z,989.89
2017-08-23T01:51:20.667Z,989.88
2017-08-23T01:52:20.682Z,989.90
2017-08-23T01:53:20.695Z,989.89
2017-08-23T01:54:20.707Z,989.89
2017-08-23T01:55:20.719Z,989.89
2017-08-23T01:56:20.732Z,989.93
2017-08-23T01:57:20.744Z,989.86
2017-08-23T01:58:20.754Z,989.88
2017-08-23T01:59:20.769Z,989.83
2017-08-23T02:00:20.779Z,989.85
2017-08-23T02:01:20.792Z,989.84
2017-08-23T02:02:20.825Z,989.80
2017-08-23T02:03:20.816Z,989.82
2017-08-23T02:04:20.831Z,989.78
2017-08-23T02:05:20.843Z,989.79
2017-08-23T02:06:20.856Z,989.74
2017-08-23T02:07:20.869Z,989.79
2017-08-23T02:08:20.884Z,989.78
2017-08-23T02:09:20.893Z,989.80
2017-08-23T02:10:20.902Z,989.77
2017-08-23T02:11:20.924Z,989.76
2017-08-23T02:12:20.930Z,989.72
2017-08-23T02:13:20.941Z,989.78
2017-08-23T02:14:20.957Z,989.77
2017-08-23T02:15:20.969Z,989.72
2017-08-23T02:16:20.980Z,989.73
2017-08-23T02:17:20.993Z,989.70
2017-08-23T02:18:21.004Z,989.71
2017-08-23T02:19:21.017Z,989.68
2017-08-23T02:20:21.026Z,989.69
2017-08-23T02:21:21.039Z,989.67
2017-08-23T02:22:21.055Z,989.63
2017-08-23T02:23:21.067Z,989.67
2017-08-23T02:24:21.078Z,989.64
2017-08-23T02:25:21.090Z,989.63
2017-08-23T02:26:21.095Z,989.65
2017-08-23T02:27:21.114Z,989.67
2017-08-23T02:28:21.127Z,989.68
2017-08-23T02:29:21.139Z,989.70
2017-08-23T02:30:21.151Z,989.68
2017-08-23T02:31:21.159Z,989.68
2017-08-23T02:32:21.174Z,989.64
2017-08-23T02:33:21.188Z,989.67
2017-08-23T02:34:21.198Z,989.63
2017-08-23T02:35:21.212Z,989.66
2017-08-23T02:36:21.225Z,989.63
2017-08-23T02:37:21.238Z,989.65
2017-08-23T02:38:21.249Z,989.63
2017-08-23T02:39:21.261Z,989.62
2017-08-23T02:40:21.276Z,989.59
2017-08-23T02:41:21.283Z,989.59
2017-08-23T02:42:21.297Z,989.54
2017-08-23T02:43:21.311Z,989.48
2017-08-23T02:44:21.321Z,989.45
2017-08-23T02:45:21.335Z,989.48
2017-08-23T02:46:21.347Z,989.43
2017-08-23T02:47:21.356Z,989.44
2017-08-23T02:48:21.370Z,989.46
2017-08-23T02:49:21.383Z,989.42
2017-08-23T02:50:21.394Z,989.43
2017-08-23T02:51:21.410Z,989.47
2017-08-23T02:52:21.419Z,989.45
2017-08-23T02:53:21.426Z,989.48
2017-08-23T02:54:21.445Z,989.49
2017-08-23T02:55:21.459Z,989.44
2017-08-23T02:56:21.467Z,989.49
2017-08-23T02:57:21.483Z,989.45
2017-08-23T02:58:21.495Z,989.42
2017-08-23T02:59:21.508Z,989.41
2017-08-23T03:00:21.525Z,989.43
2017-08-23T03:01:21.540Z,989.45
2017-08-23T03:02:21.549Z,989.46
2017-08-23T03:03:21.558Z,989.43
2017-08-23T03:04:21.567Z,989.45
2017-08-23T03:05:21.581Z,989.45
2017-08-23T03:06:21.591Z,989.44
2017-08-23T03:07:21.603Z,989.45
2017-08-23T03:08:21.616Z,989.45
2017-08-23T03:09:21.630Z,989.43
2017-08-23T03:10:21.641Z,989.44
2017-08-23T03:11:21.654Z,989.43
2017-08-23T03:12:21.672Z,989.42
2017-08-23T03:13:21.679Z,989.43
2017-08-23T03:14:21.689Z,989.45
2017-08-23T03:15:21.705Z,989.43
2017-08-23T03:16:21.715Z,989.42
2017-08-23T03:17:21.724Z,989.42
2017-08-23T03:18:21.739Z,989.44
2017-08-23T03:19:21.753Z,989.46
2017-08-23T03:20:21.775Z,989.48
2017-08-23T03:21:21.775Z,989.49
2017-08-23T03:22:21.788Z,989.53
2017-08-23T03:23:21.800Z,989.56
2017-08-23T03:24:21.815Z,989.54
2017-08-23T03:25:21.825Z,989.61
2017-08-23T03:26:21.835Z,989.62
2017-08-23T03:27:21.849Z,989.61
2017-08-23T03:28:21.858Z,989.61
2017-08-23T03:29:21.874Z,989.60
2017-08-23T03:30:21.888Z,989.57
2017-08-23T03:31:21.899Z,989.58
2017-08-23T03:32:21.916Z,989.58
2017-08-23T03:33:21.922Z,989.55
2017-08-23T03:34:21.936Z,989.56
2017-08-23T03:35:21.948Z,989.55
2017-08-23T03:36:21.963Z,989.56
2017-08-23T03:37:21.970Z,989.56
2017-08-23T03:38:21.982Z,989.59
2017-08-23T03:39:21.997Z,989.57
2017-08-23T03:40:22.009Z,989.57
2017-08-23T03:41:22.021Z,989.54
2017-08-23T03:42:22.032Z,989.61
2017-08-23T03:43:22.045Z,989.57
2017-08-23T03:44:22.056Z,989.60
2017-08-23T03:45:22.084Z,989.59
2017-08-23T03:46:22.078Z,989.58
2017-08-23T03:47:22.094Z,989.55
2017-08-23T03:48:22.104Z,989.55
2017-08-23T03:49:22.120Z,989.60
2017-08-23T03:50:22.128Z,989.57
2017-08-23T03:51:22.140Z,989.55
2017-08-23T03:52:22.154Z,989.56
2017-08-23T03:53:22.167Z,989.57
2017-08-23T03:54:22.177Z,989.58
2017-08-23T03:55:22.191Z,989.51
2017-08-23T03:56:22.212Z,989.52
2017-08-23T03:57:22.219Z,989.55
2017-08-23T03:58:22.226Z,989.56
2017-08-23T03:59:22.242Z,989.57
2017-08-23T04:00:22.254Z,989.57
2017-08-23T04:01:22.267Z,989.58
2017-08-23T04:02:22.276Z,989.51
2017-08-23T04:03:22.288Z,989.52
2017-08-23T04:04:22.316Z,989.54
2017-08-23T04:05:22.319Z,989.55
2017-08-23T04:06:22.327Z,989.56
2017-08-23T04:07:22.332Z,989.58
2017-08-23T04:08:22.353Z,989.56
2017-08-23T04:09:22.363Z,989.55
2017-08-23T04:10:22.375Z,989.62
2017-08-23T04:11:22.389Z,989.65
2017-08-23T04:12:22.401Z,989.63
2017-08-23T04:13:22.412Z,989.63
2017-08-23T04:14:22.425Z,989.62
2017-08-23T04:15:22.438Z,989.60
2017-08-23T04:16:22.449Z,989.58
2017-08-23T04:17:22.462Z,989.57
2017-08-23T04:18:22.472Z,989.57
2017-08-23T04:19:22.485Z,989.55
2017-08-23T04:20:22.500Z,989.52
2017-08-23T04:21:22.511Z,989.55
2017-08-23T04:22:22.522Z,989.53
2017-08-23T04:23:22.544Z,989.52
2017-08-23T04:24:22.548Z,989.53
2017-08-23T04:25:22.564Z,989.56
2017-08-23T04:26:22.572Z,989.54
2017-08-23T04:27:22.608Z,989.56
2017-08-23T04:28:22.597Z,989.49
2017-08-23T04:29:22.610Z,989.54
2017-08-23T04:30:22.620Z,989.52
2017-08-23T04:31:22.638Z,989.55
2017-08-23T04:32:22.645Z,989.57
2017-08-23T04:33:22.661Z,989.58
2017-08-23T04:34:22.675Z,989.59
2017-08-23T04:35:22.681Z,989.63
2017-08-23T04:36:22.695Z,989.65
2017-08-23T04:37:22.715Z,989.71
2017-08-23T04:38:22.723Z,989.70
2017-08-23T04:39:22.732Z,989.66
2017-08-23T04:40:22.745Z,989.68
2017-08-23T04:41:22.756Z,989.68
2017-08-23T04:42:22.771Z,989.70
2017-08-23T04:43:22.788Z,989.72
2017-08-23T04:44:22.796Z,989.75
2017-08-23T04:45:22.806Z,989.75
2017-08-23T04:46:22.815Z,989.76
2017-08-23T04:47:22.832Z,989.73
2017-08-23T04:48:22.840Z,989.76
2017-08-23T04:49:22.858Z,989.77
2017-08-23T04:50:22.864Z,989.73
2017-08-23T04:51:22.878Z,989.73
2017-08-23T04:52:22.890Z,989.74
2017-08-23T04:53:22.903Z,989.73
2017-08-23T04:54:22.914Z,989.73
2017-08-23T04:55:22.926Z,989.78
2017-08-23T04:56:22.940Z,989.75
2017-08-23T04:57:22.950Z,989.74
2017-08-23T04:58:22.963Z,989.73
2017-08-23T04:59:22.977Z,989.73
2017-08-23T05:00:22.989Z,989.71
2017-08-23T05:01:22.997Z,989.69
2017-08-23T05:02:23.015Z,989.69
2017-08-23T05:03:23.025Z,989.69
2017-08-23T05:04:23.037Z,989.74
2017-08-23T05:05:23.049Z,989.71
2017-08-23T05:06:23.060Z,989.73
2017-08-23T05:07:23.076Z,989.68
2017-08-23T05:08:23.086Z,989.75
2017-08-23T05:09:23.096Z,989.75
2017-08-23T05:10:23.110Z,989.76
2017-08-23T05:11:23.123Z,989.77
2017-08-23T05:12:23.129Z,989.76
2017-08-23T05:13:23.148Z,989.73
2017-08-23T05:14:23.161Z,989.74
2017-08-23T05:15:23.177Z,989.73
2017-08-23T05:16:23.184Z,989.74
2017-08-23T05:17:23.198Z,989.72
2017-08-23T05:18:23.213Z,989.72
2017-08-23T05:19:23.222Z,989.77
2017-08-23T05:20:23.228Z,989.73
2017-08-23T05:21:23.247Z,989.75
2017-08-23T05:22:23.263Z,989.76
2017-08-23T05:23:23.273Z,989.71
2017-08-23T05:24:23.282Z,989.71
2017-08-23T05:25:23.295Z,989.68
2017-08-23T05:26:23.308Z,989.70
2017-08-23T05:27:23.321Z,989.75
2017-08-23T05:28:23.334Z,989.74
2017-08-23T05:29:23.346Z,989.74
2017-08-23T05:30:23.358Z,989.75
2017-08-23T05:31:23.371Z,989.77
2017-08-23T05:32:23.383Z,989.76
2017-08-23T05:33:23.397Z,989.79
2017-08-23T05:34:23.411Z,989.81
2017-08-23T05:35:23.422Z,989.79
2017-08-23T05:36:23.435Z,989.81
2017-08-23T05:37:23.448Z,989.80
2017-08-23T05:38:23.459Z,989.76
2017-08-23T05:39:23.471Z,989.80
2017-08-23T05:40:23.482Z,989.76
2017-08-23T05:41:23.498Z,989.76
2017-08-23T05:42:23.508Z,989.72
2017-08-23T05:43:23.523Z,989.67
2017-08-23T05:44:23.535Z,989.77
2017-08-23T05:45:23.550Z,989.74
2017-08-23T05:46:23.558Z,989.71
2017-08-23T05:47:23.573Z,989.73
2017-08-23T05:48:23.585Z,989.73
2017-08-23T05:49:23.597Z,989.78
2017-08-23T05:50:23.609Z,989.80
2017-08-23T05:51:23.623Z,989.80
2017-08-23T05:52:23.634Z,989.83
2017-08-23T05:53:23.647Z,989.88
2017-08-23T05:54:23.661Z,989.86
2017-08-23T05:55:23.674Z,989.88
2017-08-23T05:56:23.686Z,989.93
2017-08-23T05:57:23.701Z,989.93
2017-08-23T05:58:23.712Z,989.94
2017-08-23T05:59:23.722Z,989.91
2017-08-23T06:00:23.738Z,989.93
2017-08-23T06:01:23.749Z,989.93
2017-08-23T06:02:23.763Z,989.92
2017-08-23T06:03:23.777Z,989.97
2017-08-23T06:04:23.795Z,989.89
2017-08-23T06:05:23.803Z,990.03
2017-08-23T06:06:23.819Z,990.15
2017-08-23T06:07:23.831Z,990.07
2017-08-23T06:08:23.841Z,990.06
2017-08-23T06:09:23.856Z,989.92
2017-08-23T06:10:23.869Z,989.95
2017-08-23T06:11:23.883Z,989.90
2017-08-23T06:12:23.913Z,989.93
2017-08-23T06:13:23.918Z,989.96
2017-08-23T06:14:23.923Z,990.01
2017-08-23T06:15:23.937Z,989.93
2017-08-23T06:16:23.949Z,989.92
2017-08-23T06:17:23.964Z,989.89
2017-08-23T06:18:23.978Z,989.97
2017-08-23T06:19:23.993Z,989.83
2017-08-23T06:20:24.005Z,989.79
2017-08-23T06:21:24.019Z,989.78
2017-08-23T06:22:24.036Z,989.79
2017-08-23T06:23:24.050Z,989.89
2017-08-23T06:24:24.064Z,989.86
2017-08-23T06:25:24.078Z,989.85
2017-08-23T06:26:24.091Z,989.82
2017-08-23T06:27:24.108Z,989.88
2017-08-23T06:28:24.123Z,989.94
2017-08-23T06:29:24.142Z,989.93
2017-08-23T06:30:24.147Z,989.94
2017-08-23T06:31:24.165Z,989.93
2017-08-23T06:32:24.184Z,989.91
2017-08-23T06:33:24.199Z,989.87
2017-08-23T06:34:24.215Z,989.83
2017-08-23T06:35:24.231Z,989.87
2017-08-23T06:36:24.246Z,989.87
2017-08-23T06:37:24.263Z,989.83
2017-08-23T06:38:24.279Z,989.78
2017-08-23T06:39:24.296Z,989.79
2017-08-23T06:40:24.311Z,989.78
2017-08-23T06:41:24.328Z,989.78
2017-08-23T06:42:24.344Z,989.81
2017-08-23T06:43:24.360Z,989.73
2017-08-23T06:44:24.381Z,989.72
2017-08-23T06:45:24.395Z,989.73
2017-08-23T06:46:24.409Z,989.72
2017-08-23T06:47:24.429Z,989.75
2017-08-23T06:48:24.446Z,989.75
2017-08-23T06:49:24.462Z,989.73
2017-08-23T06:50:24.477Z,989.71
2017-08-23T06:51:24.497Z,989.77
2017-08-23T06:52:24.515Z,989.77
2017-08-23T06:53:24.530Z,989.77
2017-08-23T06:54:24.556Z,989.71
2017-08-23T06:55:24.567Z,989.77
2017-08-23T06:56:24.583Z,989.72
2017-08-23T06:57:24.601Z,989.77
2017-08-23T06:58:24.618Z,989.75
2017-08-23T06:59:24.636Z,989.71
2017-08-23T07:00:24.653Z,989.73
2017-08-23T07:01:24.675Z,989.74
2017-08-23T07:02:24.693Z,989.72
2017-08-23T07:03:24.709Z,989.73
2017-08-23T07:04:24.722Z,989.76
2017-08-23T07:05:24.744Z,989.76
2017-08-23T07:06:24.762Z,989.71
2017-08-23T07:07:24.787Z,989.71
2017-08-23T07:08:24.798Z,989.68
2017-08-23T07:09:24.819Z,989.64
2017-08-23T07:10:24.837Z,989.60
2017-08-23T07:11:24.852Z,989.66
2017-08-23T07:12:24.878Z,989.68
2017-08-23T07:13:24.893Z,989.72
2017-08-23T07:14:24.908Z,989.71
2017-08-23T07:15:24.928Z,989.71
2017-08-23T07:16:24.948Z,989.70
2017-08-23T07:17:24.962Z,989.71
2017-08-23T07:18:24.981Z,989.70
2017-08-23T07:19:25.006Z,989.68
2017-08-23T07:20:25.021Z,989.63
2017-08-23T07:21:25.041Z,989.64
2017-08-23T07:22:25.062Z,989.64
2017-08-23T07:23:25.094Z,989.63
2017-08-23T07:24:25.094Z,989.65
2017-08-23T07:25:25.116Z,989.63
2017-08-23T07:26:25.137Z,989.65
2017-08-23T07:27:25.152Z,989.65
2017-08-23T07:28:25.173Z,989.68
2017-08-23T07:29:25.190Z,989.66
2017-08-23T07:30:25.213Z,989.62
2017-08-23T07:31:25.237Z,989.63
2017-08-23T07:32:25.248Z,989.66
2017-08-23T07:33:25.271Z,989.73
2017-08-23T07:34:25.286Z,989.73
2017-08-23T07:35:25.308Z,989.75
2017-08-23T07:36:25.324Z,989.79
2017-08-23T07:37:25.344Z,989.80
2017-08-23T07:38:25.369Z,989.78
2017-08-23T07:39:25.384Z,989.78
2017-08-23T07:40:25.401Z,989.79
2017-08-23T07:41:25.422Z,989.84
2017-08-23T07:42:25.444Z,989.84
2017-08-23T07:43:25.462Z,989.84
2017-08-23T07:44:25.478Z,989.92
2017-08-23T07:45:25.499Z,989.90
2017-08-23T07:46:25.516Z,989.86
2017-08-23T07:47:25.536Z,989.80
2017-08-23T07:48:25.556Z,989.83
2017-08-23T07:49:25.575Z,989.88
2017-08-23T07:50:25.595Z,989.83
2017-08-23T07:51:25.614Z,989.87
2017-08-23T07:52:25.632Z,989.84
2017-08-23T07:53:25.653Z,989.78
2017-08-23T07:54:25.670Z,989.73
2017-08-23T07:55:25.690Z,989.76
2017-08-23T07:56:25.710Z,989.71
2017-08-23T07:57:25.729Z,989.70
2017-08-23T07:58:25.750Z,989.69
2017-08-23T07:59:25.768Z,989.65
2017-08-23T08:00:25.786Z,989.68
2017-08-23T08:01:25.831Z,989.62
2017-08-23T08:02:25.824Z,989.58
2017-08-23T08:03:25.845Z,989.58
2017-08-23T08:04:25.862Z,989.54
2017-08-23T08:05:25.884Z,989.55
2017-08-23T08:06:25.903Z,989.61
2017-08-23T08:07:25.924Z,989.59
2017-08-23T08:08:25.942Z,989.56
2017-08-23T08:09:25.959Z,989.59
2017-08-23T08:10:25.977Z,989.58
2017-08-23T08:11:25.998Z,989.61
2017-08-23T08:12:26.016Z,989.58
2017-08-23T08:13:26.035Z,989.58
2017-08-23T08:14:26.060Z,989.58
2017-08-23T08:15:26.074Z,989.56
2017-08-23T08:16:26.092Z,989.59
2017-08-23T08:17:26.110Z,989.60
2017-08-23T08:18:26.129Z,989.61
2017-08-23T08:19:26.150Z,989.61
2017-08-23T08:20:26.168Z,989.61
2017-08-23T08:21:26.188Z,989.63
2017-08-23T08:22:26.206Z,989.60
2017-08-23T08:23:26.225Z,989.63
2017-08-23T08:24:26.244Z,989.56
2017-08-23T08:25:26.262Z,989.55
2017-08-23T08:26:26.281Z,989.56
2017-08-23T08:27:26.302Z,989.56
2017-08-23T08:28:26.319Z,989.56
2017-08-23T08:29:26.338Z,989.50
2017-08-23T08:30:26.359Z,989.47
2017-08-23T08:31:26.377Z,989.45
2017-08-23T08:32:26.398Z,989.45
2017-08-23T08:33:26.440Z,989.46
2017-08-23T08:34:26.429Z,989.46
2017-08-23T08:35:26.452Z,989.47
2017-08-23T08:36:26.467Z,989.42
2017-08-23T08:37:26.487Z,989.41
2017-08-23T08:38:26.505Z,989.39
2017-08-23T08:39:26.524Z,989.41
2017-08-23T08:40:26.543Z,989.40
2017-08-23T08:41:26.561Z,989.43
2017-08-23T08:42:26.579Z,989.44
2017-08-23T08:43:26.598Z,989.44
2017-08-23T08:44:26.616Z,989.47
2017-08-23T08:45:26.636Z,989.45
2017-08-23T08:46:26.652Z,989.46
2017-08-23T08:47:26.671Z,989.47
2017-08-23T08:48:26.690Z,989.45
2017-08-23T08:49:26.711Z,989.47
2017-08-23T08:50:26.725Z,989.49
2017-08-23T08:51:26.745Z,989.43
2017-08-23T08:52:26.763Z,989.46
2017-08-23T08:53:26.781Z,989.42
2017-08-23T08:54:26.799Z,989.43
2017-08-23T08:55:26.817Z,989.44
2017-08-23T08:56:26.835Z,989.43
2017-08-23T08:57:26.853Z,989.40
2017-08-23T08:58:26.869Z,989.49
2017-08-23T08:59:26.891Z,989.40
2017-08-23T09:00:26.909Z,989.45
2017-08-23T09:01:26.925Z,989.40
2017-08-23T09:02:26.943Z,989.41
2017-08-23T09:03:26.961Z,989.35
2017-08-23T09:04:26.978Z,989.38
2017-08-23T09:05:26.999Z,989.39
2017-08-23T09:06:27.014Z,989.40
2017-08-23T09:07:27.035Z,989.39
2017-08-23T09:08:27.050Z,989.37
2017-08-23T09:09:27.072Z,989.33
2017-08-23T09:10:27.084Z,989.33
2017-08-23T09:11:27.106Z,989.34
2017-08-23T09:12:27.122Z,989.30
2017-08-23T09:13:27.140Z,989.33
2017-08-23T09:14:27.158Z,989.37
2017-08-23T09:15:27.174Z,989.33
2017-08-23T09:16:27.194Z,989.34
2017-08-23T09:17:27.207Z,989.32
2017-08-23T09:18:27.230Z,989.28
2017-08-23T09:19:27.247Z,989.26
2017-08-23T09:20:27.266Z,989.25
2017-08-23T09:21:27.284Z,989.23
2017-08-23T09:22:27.299Z,989.21
2017-08-23T09:23:27.321Z,989.23
2017-08-23T09:24:27.338Z,989.19
2017-08-23T09:25:27.353Z,989.20
2017-08-23T09:26:27.371Z,989.17
2017-08-23T09:27:27.395Z,989.17
2017-08-23T09:28:27.409Z,989.16
2017-08-23T09:29:27.425Z,989.15
2017-08-23T09:30:27.443Z,989.14
2017-08-23T09:31:27.462Z,989.15
2017-08-23T09:32:27.478Z,989.21
2017-08-23T09:33:27.500Z,989.16
2017-08-23T09:34:27.515Z,989.19
2017-08-23T09:35:27.531Z,989.22
2017-08-23T09:36:27.550Z,989.19
2017-08-23T09:37:27.566Z,989.18
2017-08-23T09:38:27.583Z,989.18
2017-08-23T09:39:27.604Z,989.21
2017-08-23T09:40:27.620Z,989.15
2017-08-23T09:41:27.638Z,989.17
2017-08-23T09:42:27.657Z,989.14
2017-08-23T09:43:27.671Z,989.14
2017-08-23T09:44:27.691Z,989.16
2017-08-23T09:45:27.705Z,989.15
2017-08-23T09:46:27.724Z,989.14
2017-08-23T09:47:27.745Z,989.14
2017-08-23T09:48:27.760Z,989.11
2017-08-23T09:49:27.778Z,989.16
2017-08-23T09:50:27.796Z,989.15
2017-08-23T09:51:27.813Z,989.14
2017-08-23T09:52:27.832Z,989.15
2017-08-23T09:53:27.850Z,989.15
2017-08-23T09:54:27.865Z,989.15
2017-08-23T09:55:27.884Z,989.16
2017-08-23T09:56:27.904Z,989.19
2017-08-23T09:57:27.920Z,989.17
2017-08-23T09:58:27.937Z,989.18
2017-08-23T09:59:27.954Z,989.19
2017-08-23T10:00:27.972Z,989.16
2017-08-23T10:01:27.991Z,989.15
2017-08-23T10:02:28.008Z,989.15
2017-08-23T10:03:28.025Z,989.08
2017-08-23T10:04:28.041Z,989.09
2017-08-23T10:05:28.060Z,989.08
2017-08-23T10:06:28.081Z,989.08
2017-08-23T10:07:28.097Z,989.07
2017-08-23T10:08:28.114Z,989.03
2017-08-23T10:09:28.132Z,989.06
2017-08-23T10:10:28.148Z,989.10
2017-08-23T10:11:28.166Z,989.06
2017-08-23T10:12:28.183Z,989.09
2017-08-23T10:13:28.202Z,989.11
2017-08-23T10:14:28.231Z,989.04
2017-08-23T10:15:28.239Z,989.07
2017-08-23T10:16:28.257Z,989.08
2017-08-23T10:17:28.272Z,989.06
2017-08-23T10:18:28.289Z,989.03
2017-08-23T10:19:28.310Z,989.02
2017-08-23T10:20:28.324Z,989.00
2017-08-23T10:21:28.345Z,989.01
2017-08-23T10:22:28.367Z,989.00
2017-08-23T10:23:28.380Z,989.02
2017-08-23T10:24:28.395Z,988.99
2017-08-23T10:25:28.414Z,988.98
2017-08-23T10:26:28.430Z,988.94
2017-08-23T10:27:28.450Z,988.94
2017-08-23T10:28:28.467Z,988.92
2017-08-23T10:29:28.485Z,988.93
2017-08-23T10:30:28.503Z,988.95
2017-08-23T10:31:28.520Z,988.94
2017-08-23T10:32:28.540Z,988.96
2017-08-23T10:33:28.556Z,988.92
2017-08-23T10:34:28.583Z,988.94
2017-08-23T10:35:28.589Z,988.89
2017-08-23T10:36:28.607Z,988.90
2017-08-23T10:37:28.634Z,988.87
2017-08-23T10:38:28.643Z,988.87
2017-08-23T10:39:28.662Z,988.85
2017-08-23T10:40:28.677Z,988.84
2017-08-23T10:41:28.698Z,988.79
2017-08-23T10:42:28.713Z,988.84
2017-08-23T10:43:28.734Z,988.83
2017-08-23T10:44:28.750Z,988.76
2017-08-23T10:45:28.769Z,988.76
2017-08-23T10:46:28.784Z,988.79
2017-08-23T10:47:28.803Z,988.80
2017-08-23T10:48:28.821Z,988.77
2017-08-23T10:49:28.840Z,988.78
2017-08-23T10:50:28.856Z,988.72
2017-08-23T10:51:28.874Z,988.73
2017-08-23T10:52:28.890Z,988.72
2017-08-23T10:53:28.910Z,988.70
2017-08-23T10:54:28.926Z,988.71
2017-08-23T10:55:28.945Z,988.70
2017-08-23T10:56:28.960Z,988.69
2017-08-23T10:57:28.981Z,988.71
2017-08-23T10:58:28.997Z,988.72
2017-08-23T10:59:29.028Z,988.69
2017-08-23T11:00:29.031Z,988.70
2017-08-23T11:01:29.058Z,988.67
2017-08-23T11:02:29.071Z,988.70
2017-08-23T11:03:29.085Z,988.74
2017-08-23T11:04:29.104Z,988.69
2017-08-23T11:05:29.122Z,988.70
2017-08-23T11:06:29.136Z,988.73
2017-08-23T11:07:29.156Z,988.72
2017-08-23T11:08:29.172Z,988.68
2017-08-23T11:09:29.191Z,988.70
2017-08-23T11:10:29.209Z,988.73
2017-08-23T11:11:29.230Z,988.71
2017-08-23T11:12:29.251Z,988.71
2017-08-23T11:13:29.263Z,988.68
2017-08-23T11:14:29.281Z,988.66
2017-08-23T11:15:29.298Z,988.65
2017-08-23T11:16:29.316Z,988.68
2017-08-23T11:17:29.333Z,988.67
2017-08-23T11:18:29.355Z,988.64
2017-08-23T11:19:29.367Z,988.68
2017-08-23T11:20:29.385Z,988.67
2017-08-23T11:21:29.404Z,988.65
2017-08-23T11:22:29.418Z,988.68
2017-08-23T11:23:29.438Z,988.65
2017-08-23T11:24:29.461Z,988.64
2017-08-23T11:25:29.473Z,988.66
2017-08-23T11:26:29.491Z,988.63
2017-08-23T11:27:29.514Z,988.68
2017-08-23T11:28:29.530Z,988.61
2017-08-23T11:29:29.548Z,988.64
2017-08-23T11:30:29.563Z,988.64
2017-08-23T11:31:29.582Z,988.64
2017-08-23T11:32:29.612Z,988.63
2017-08-23T11:33:29.614Z,988.66
2017-08-23T11:34:29.632Z,988.63
2017-08-23T11:35:29.651Z,988.65
2017-08-23T11:36:29.670Z,988.66
2017-08-23T11:37:29.686Z,988.66
2017-08-23T11:38:29.704Z,988.65
2017-08-23T11:39:29.724Z,988.67
2017-08-23T11:40:29.743Z,988.64
2017-08-23T11:41:29.758Z,988.67
2017-08-23T11:42:29.775Z,988.65
2017-08-23T11:43:29.798Z,988.68
2017-08-23T11:44:29.818Z,988.67
2017-08-23T11:45:29.830Z,988.68
2017-08-23T11:46:29.851Z,988.66
2017-08-23T11:47:29.865Z,988.66
2017-08-23T11:48:29.883Z,988.64
2017-08-23T11:49:29.903Z,988.64
2017-08-23T11:50:29.918Z,988.62
2017-08-23T11:51:29.938Z,988.60
2017-08-23T11:52:29.954Z,988.59
2017-08-23T11:53:29.971Z,988.61
2017-08-23T11:54:29.987Z,988.56
2017-08-23T11:55:30.019Z,988.54
2017-08-23T11:56:30.024Z,988.53
2017-08-23T11:57:30.043Z,988.54
2017-08-23T11:58:30.075Z,988.54
2017-08-23T11:59:30.078Z,988.54
2017-08-23T12:00:30.096Z,988.56
2017-08-23T12:01:30.112Z,988.49
2017-08-23T12:02:30.130Z,988.48
2017-08-23T12:03:30.150Z,988.51
2017-08-23T12:04:30.171Z,988.55
2017-08-23T12:05:30.185Z,988.59
2017-08-23T12:06:30.200Z,988.59
2017-08-23T12:07:30.237Z,988.60
2017-08-23T12:08:30.240Z,988.58
2017-08-23T12:09:30.256Z,988.60
2017-08-23T12:10:30.275Z,988.53
2017-08-23T12:11:30.297Z,988.53
2017-08-23T12:12:30.310Z,988.56
2017-08-23T12:13:30.328Z,988.54
2017-08-23T12:14:30.345Z,988.54
2017-08-23T12:15:30.364Z,988.50
2017-08-23T12:16:30.381Z,988.53
2017-08-23T12:17:30.399Z,988.51
2017-08-23T12:18:30.419Z,988.50
2017-08-23T12:19:30.437Z,988.48
2017-08-23T12:20:30.453Z,988.47
2017-08-23T12:21:30.471Z,988.48
2017-08-23T12:22:30.487Z,988.49
2017-08-23T12:23:30.507Z,988.47
2017-08-23T12:24:30.523Z,988.51
2017-08-23T12:25:30.545Z,988.51
2017-08-23T12:26:30.567Z,988.49
2017-08-23T12:27:30.581Z,988.52
2017-08-23T12:28:30.600Z,988.55